Time;durP1;ratioP1;P1;durP2;ratioP2;P2;SDS_P1;SDS_P2;PMS_P1;PMS_P2;Temp;Humidity;BMP_temperature;BMP_pressure;BME280_temperature;BME280_humidity;BME280_pressure;Samples;Min_cycle;Max_cycle;Signal;HPM_P1;HPM_P2
2022/04/21 00:00:24;;;;;;;44.38;12.20;;;;;;;21.46;38.12;102908.09;4165536;28;20107;-65
2022/04/21 00:02:28;;;;;;;41.22;12.52;;;;;;;21.54;38.31;102922.53;4166186;28;20095;-65
2022/04/21 00:04:31;;;;;;;51.43;13.10;;;;;;;21.54;38.09;102922.53;4165925;28;20427;-64
2022/04/21 00:06:32;;;;;;;52.03;12.63;;;;;;;21.55;38.08;102928.94;4165610;28;20341;-65
2022/04/21 00:08:34;;;;;;;42.53;12.90;;;;;;;21.53;37.91;102936.66;4165944;28;20111;-65
2022/04/21 00:10:35;;;;;;;36.40;11.45;;;;;;;21.51;37.67;102927.72;4166099;28;20183;-65
2022/04/21 00:12:37;;;;;;;37.88;11.13;;;;;;;21.49;37.23;102941.03;4165922;28;20037;-65
2022/04/21 00:14:39;;;;;;;40.58;10.88;;;;;;;21.48;37.24;102936.53;4165865;28;20037;-65
2022/04/21 00:16:40;;;;;;;36.88;11.77;;;;;;;21.49;37.45;102941.03;4165771;28;20539;-66
2022/04/21 00:18:42;;;;;;;43.50;12.35;;;;;;;21.48;37.10;102944.91;4165834;28;20030;-65
2022/04/21 00:20:44;;;;;;;38.10;11.35;;;;;;;21.47;37.44;102938.47;4165493;28;20092;-65
2022/04/21 00:25:08;;;;;;;29.17;10.32;;;;;;;21.49;37.04;102952.19;4166520;28;20095;-65
2022/04/21 00:27:10;;;;;;;36.05;9.93;;;;;;;21.43;37.19;102947.53;4165839;28;20095;-65
2022/04/21 00:29:12;;;;;;;33.55;10.63;;;;;;;21.46;36.99;102952.66;4165879;28;20439;-66
2022/04/21 00:31:14;;;;;;;35.25;9.55;;;;;;;21.40;37.55;102942.47;4165666;28;20079;-65
2022/04/21 00:33:16;;;;;;;34.20;10.32;;;;;;;21.33;36.96;102936.97;4165332;28;20067;-65
2022/04/21 00:35:18;;;;;;;34.25;10.95;;;;;;;21.43;37.23;102953.97;4164438;28;20440;-64
2022/04/21 00:37:20;;;;;;;34.72;10.68;;;;;;;21.46;37.19;102955.44;4165495;28;20033;-65
2022/04/21 00:39:21;;;;;;;39.60;10.63;;;;;;;21.46;36.99;102947.06;4165241;28;20092;-65
2022/04/21 00:41:29;;;;;;;35.30;10.35;;;;;;;21.44;37.26;102965.94;4163630;28;20127;-65
2022/04/21 00:43:30;;;;;;;30.13;9.63;;;;;;;21.46;36.90;102958.22;4165593;28;20033;-64
2022/04/21 00:45:33;;;;;;;33.97;10.77;;;;;;;21.43;37.15;102965.09;4164869;28;20033;-64
2022/04/21 00:47:35;;;;;;;34.08;10.13;;;;;;;21.44;37.28;102969.59;4164855;28;20053;-65
2022/04/21 00:49:37;;;;;;;31.23;10.23;;;;;;;21.41;37.32;102952.50;4165069;28;20042;-65
2022/04/21 00:51:39;;;;;;;31.70;10.05;;;;;;;21.46;37.21;102974.94;4165105;28;20041;-66
2022/04/21 00:53:41;;;;;;;29.77;9.85;;;;;;;21.44;37.59;102968.72;4164571;28;20041;-65
2022/04/21 00:55:43;;;;;;;30.95;9.57;;;;;;;21.44;37.53;102965.94;4164830;28;20064;-64
2022/04/21 00:57:49;;;;;;;31.58;9.70;;;;;;;21.44;37.25;102963.16;4165681;28;20091;-64
2022/04/21 00:59:54;;;;;;;28.42;10.05;;;;;;;21.43;37.77;102970.66;4165266;28;20033;-64
2022/04/21 01:04:16;;;;;;;29.30;9.13;;;;;;;21.39;37.40;102974.16;4165071;28;20099;-65
2022/04/21 01:06:17;;;;;;;28.75;10.05;;;;;;;21.44;37.88;102983.53;4164433;28;20472;-64
2022/04/21 01:08:18;;;;;;;28.83;9.50;;;;;;;21.42;37.72;102985.69;4165028;28;20099;-64
2022/04/21 01:10:22;;;;;;;25.27;8.88;;;;;;;21.45;37.89;102978.81;4165789;28;20424;-65
2022/04/21 01:12:23;;;;;;;27.00;9.18;;;;;;;21.45;37.67;102984.38;4165237;28;20038;-65
2022/04/21 01:14:28;;;;;;;26.42;8.95;;;;;;;21.44;37.39;102985.44;4164703;28;20099;-65
2022/04/21 01:16:30;;;;;;;27.00;9.35;;;;;;;21.43;37.57;102987.38;4165082;28;20457;-64
2022/04/21 01:18:31;;;;;;;28.02;8.80;;;;;;;21.41;38.01;102999.88;4174208;28;20036;-65
2022/04/21 01:20:33;;;;;;;24.85;8.25;;;;;;;21.36;37.86;102994.16;4181114;28;20040;-64
2022/04/21 01:22:35;;;;;;;20.42;8.07;;;;;;;21.39;37.57;103002.00;4173811;28;20029;-65
2022/04/21 01:24:37;;;;;;;21.15;8.50;;;;;;;21.26;37.71;102983.53;4171863;28;20033;-64
2022/04/21 01:26:38;;;;;;;26.02;8.65;;;;;;;21.36;37.78;103002.50;4181562;28;20044;-65
2022/04/21 01:28:39;;;;;;;33.17;9.77;;;;;;;21.38;37.86;103011.47;4175113;28;20388;-64
2022/04/21 01:30:41;;;;;;;25.50;8.02;;;;;;;21.38;37.79;103014.25;4173369;28;20041;-65
2022/04/21 01:32:44;;;;;;;22.00;8.38;;;;;;;21.38;37.84;103017.03;4170773;28;20546;-64
2022/04/21 01:34:45;;;;;;;24.60;8.50;;;;;;;21.32;37.96;103013.25;4175264;28;20102;-64
2022/04/21 01:41:26;;;;;;;22.58;8.20;;;;;;;21.38;38.13;103023.44;4185012;28;20090;-65
2022/04/21 01:43:28;;;;;;;20.05;7.65;;;;;;;21.36;37.91;103027.56;4186303;28;20094;-65
2022/04/21 01:45:29;;;;;;;21.88;7.47;;;;;;;21.37;37.83;103032.03;4186302;28;20036;-65
2022/04/21 01:47:30;;;;;;;21.83;7.40;;;;;;;21.37;38.13;103029.25;4171892;28;20049;-65
2022/04/21 01:49:32;;;;;;;18.05;7.93;;;;;;;21.28;38.18;103023.97;4170226;28;20037;-65
2022/04/21 01:51:33;;;;;;;22.02;8.02;;;;;;;21.38;37.82;103028.16;4176447;28;20037;-65
2022/04/21 01:53:37;;;;;;;26.42;8.05;;;;;;;21.39;38.14;103035.44;4181259;28;20503;-65
2022/04/21 01:55:39;;;;;;;22.20;7.97;;;;;;;21.38;37.98;103030.94;4169389;28;20045;-65
2022/04/21 01:57:40;;;;;;;19.00;7.68;;;;;;;21.28;37.96;103018.41;4170735;28;20033;-65
2022/04/21 01:59:41;;;;;;;17.02;6.78;;;;;;;21.33;37.85;103023.31;4182100;28;20099;-65
2022/04/21 02:01:43;;;;;;;18.92;7.15;;;;;;;21.35;37.94;103034.19;4170153;28;20092;-65
2022/04/21 02:03:44;;;;;;;18.58;7.18;;;;;;;21.34;37.94;103044.50;4169926;28;20111;-65
2022/04/21 02:05:46;;;;;;;17.90;7.55;;;;;;;21.34;38.33;103040.84;4185490;28;20111;-65
2022/04/21 02:07:50;;;;;;;15.10;6.75;;;;;;;21.23;38.23;103009.91;4180036;28;20385;-65
2022/04/21 02:09:52;;;;;;;16.50;6.93;;;;;;;21.35;38.30;103039.75;4168414;28;20519;-65
2022/04/21 02:11:53;;;;;;;17.90;6.88;;;;;;;21.23;38.22;103009.91;4173455;28;20498;-65
2022/04/21 02:13:55;;;;;;;18.00;6.22;;;;;;;21.40;37.91;103037.16;4186379;28;20049;-65
2022/04/21 02:15:56;;;;;;;17.40;7.20;;;;;;;21.39;37.70;103033.50;4183783;28;20045;-73
2022/04/21 02:18:00;;;;;;;18.58;7.22;;;;;;;21.40;37.72;103037.16;4179376;28;20033;-65
2022/04/21 02:20:05;;;;;;;17.83;6.90;;;;;;;21.39;37.75;103044.63;4181748;28;20057;-66
2022/04/21 02:22:06;;;;;;;22.42;6.53;;;;;;;21.38;37.85;103040.16;4169393;28;20333;-64
2022/04/21 02:24:07;;;;;;;15.20;6.10;;;;;;;21.33;37.71;103030.81;4173304;28;20094;-65
2022/04/21 02:26:11;;;;;;;17.77;6.43;;;;;;;21.37;37.81;103040.41;4186364;28;20087;-64
2022/04/21 02:28:13;;;;;;;17.45;6.50;;;;;;;21.31;37.65;103034.69;4173428;28;20049;-65
2022/04/21 02:30:16;;;;;;;17.73;6.00;;;;;;;21.39;37.44;103041.84;4171508;28;20042;-65
2022/04/21 02:32:17;;;;;;;19.08;6.18;;;;;;;21.41;37.51;103038.84;4175273;28;20091;-65
2022/04/21 02:34:19;;;;;;;14.60;5.70;;;;;;;21.42;37.37;103040.53;4169417;28;20091;-64
2022/04/21 02:36:20;;;;;;;13.07;5.15;;;;;;;21.39;37.57;103035.44;4169684;28;20041;-64
2022/04/21 02:38:21;;;;;;;17.67;5.53;;;;;;;21.43;37.75;103047.81;4168676;28;20107;-65
2022/04/21 02:40:23;;;;;;;18.05;5.90;;;;;;;21.44;37.65;103049.50;4183884;28;20531;-64
2022/04/21 02:42:27;;;;;;;15.93;6.00;;;;;;;21.13;37.39;102995.69;4196309;28;20029;-65
2022/04/21 02:44:28;;;;;;;14.75;5.70;;;;;;;21.45;37.44;103056.81;4192182;28;20042;-65
2022/04/21 02:46:32;;;;;;;16.52;5.93;;;;;;;21.45;37.41;103052.06;4175813;28;20041;-65
2022/04/21 02:48:34;;;;;;;14.15;6.15;;;;;;;21.40;37.37;103037.16;4169529;28;20103;-65
2022/04/21 02:50:36;;;;;;;21.30;7.05;;;;;;;21.45;37.56;103059.59;4183377;28;20040;-65
2022/04/21 02:52:41;;;;;;;11.90;5.25;;;;;;;21.47;37.49;103060.19;4183363;28;20037;-65
2022/04/21 02:57:21;;;;;;;11.07;5.38;;;;;;;21.45;37.43;103062.38;4183595;28;20098;-65
2022/04/21 02:59:23;;;;;;;12.82;5.68;;;;;;;21.47;37.47;103060.19;4179366;28;20404;-64
2022/04/21 03:01:24;;;;;;;13.52;4.95;;;;;;;21.47;37.67;103066.59;4178872;28;20038;-65
2022/04/21 03:03:25;;;;;;;14.80;5.57;;;;;;;21.47;37.27;103060.19;4175263;28;20037;-65
2022/04/21 03:05:29;;;;;;;13.35;4.90;;;;;;;21.47;37.28;103065.75;4183179;28;20067;-65
2022/04/21 03:07:30;;;;;;;12.20;4.82;;;;;;;21.47;37.48;103069.41;4183364;28;20041;-65
2022/04/21 03:09:32;;;;;;;14.55;4.93;;;;;;;21.48;37.39;103070.25;4181722;28;20038;-65
2022/04/21 03:11:34;;;;;;;12.85;4.82;;;;;;;21.48;37.75;103073.03;4175939;28;20546;-65
2022/04/21 03:13:41;;;;;;;13.82;4.97;;;;;;;21.47;37.63;103082.47;4173711;28;20582;-64
2022/04/21 03:15:42;;;;;;;9.00;4.43;;;;;;;21.49;37.34;103080.31;4183953;28;20045;-65
2022/04/21 03:17:44;;;;;;;7.93;4.13;;;;;;;21.44;37.73;103078.25;4183619;28;20045;-65
2022/04/21 03:19:45;;;;;;;9.82;4.90;;;;;;;21.49;37.68;103083.97;4169200;28;20033;-64
2022/04/21 03:24:21;;;;;;;9.70;3.97;;;;;;;21.49;37.70;103080.31;4182734;28;20086;-64
2022/04/21 03:26:23;;;;;;;8.52;3.65;;;;;;;21.50;37.31;103082.03;4182510;28;20546;-64
2022/04/21 03:28:24;;;;;;;10.50;3.38;;;;;;;21.48;37.64;103089.75;4179402;28;20059;-64
2022/04/21 03:30:25;;;;;;;7.35;4.07;;;;;;;21.51;37.39;103089.28;4182741;28;20040;-65
2022/04/21 03:32:30;;;;;;;9.45;3.47;;;;;;;21.49;37.50;103083.97;4182639;28;20439;-65
2022/04/21 03:34:31;;;;;;;10.27;3.67;;;;;;;21.50;37.42;103084.81;4182195;28;20033;-65
2022/04/21 03:36:33;;;;;;;9.75;3.72;;;;;;;21.49;37.69;103085.91;4182960;28;20094;-64
2022/04/21 03:38:37;;;;;;;10.02;3.70;;;;;;;21.51;37.61;103089.28;4183196;28;20045;-64
2022/04/21 03:40:40;;;;;;;7.82;3.65;;;;;;;21.51;37.22;103089.28;4183113;28;20091;-65
2022/04/21 03:42:42;;;;;;;9.43;3.50;;;;;;;21.51;37.65;103081.78;4182665;28;20087;-64
2022/04/21 03:44:43;;;;;;;12.73;3.60;;;;;;;21.51;37.44;103089.28;4172383;28;20116;-64
2022/04/21 03:46:44;;;;;;;8.75;3.70;;;;;;;21.52;37.35;103082.63;4166318;28;20041;-63
2022/04/21 03:48:45;;;;;;;6.72;3.13;;;;;;;21.52;37.41;103085.41;4178148;28;20041;-65
2022/04/21 03:50:50;;;;;;;8.07;3.10;;;;;;;21.53;37.70;103087.09;4182556;28;20102;-64
2022/04/21 03:52:54;;;;;;;9.82;3.35;;;;;;;21.46;37.49;103070.47;4182831;28;20118;-64
2022/04/21 03:54:55;;;;;;;7.35;3.58;;;;;;;21.50;37.53;103084.81;4181206;28;20037;-63
2022/04/21 03:57:03;;;;;;;5.55;2.80;;;;;;;21.37;37.84;103057.97;4181282;28;20190;-63
2022/04/21 03:59:04;;;;;;;6.57;3.33;;;;;;;21.53;37.85;103081.53;4182140;28;20041;-64
2022/04/21 04:01:05;;;;;;;6.30;2.78;;;;;;;21.49;37.53;103080.31;4176787;28;20114;-63
2022/04/21 04:03:07;;;;;;;6.57;2.97;;;;;;;21.54;37.78;103091.63;4165680;28;20099;-63
2022/04/21 04:05:09;;;;;;;5.28;2.72;;;;;;;21.53;37.70;103096.34;4165658;28;20041;-64
2022/04/21 04:11:50;;;;;;;9.57;2.92;;;;;;;21.55;37.46;103090.53;4165890;28;20071;-65
2022/04/21 04:13:51;;;;;;;4.13;2.17;;;;;;;21.56;37.23;103092.22;4165822;28;20527;-65
2022/04/21 04:15:54;;;;;;;5.72;2.72;;;;;;;21.55;37.17;103084.94;4168470;28;20040;-64
2022/04/21 04:17:55;;;;;;;4.70;2.83;;;;;;;21.55;37.62;103093.31;4178464;28;20037;-65
2022/04/21 04:19:57;;;;;;;8.20;2.75;;;;;;;21.55;37.53;103096.09;4165730;28;20472;-64
2022/04/21 04:21:58;;;;;;;5.43;2.80;;;;;;;21.55;37.43;103102.50;4165564;28;20049;-64
2022/04/21 04:24:00;;;;;;;9.65;2.53;;;;;;;21.55;37.15;103096.09;4165510;28;20030;-65
2022/04/21 04:26:04;;;;;;;6.95;2.60;;;;;;;21.52;37.17;103091.81;4164955;28;20574;-65
2022/04/21 04:28:05;;;;;;;6.57;2.60;;;;;;;21.56;37.61;103092.22;4171588;28;20496;-64
2022/04/21 04:30:08;;;;;;;5.55;3.08;;;;;;;21.53;37.11;103081.53;4181878;28;20045;-64
2022/04/21 04:32:10;;;;;;;4.63;2.72;;;;;;;21.56;37.11;103093.06;4182044;28;20480;-65
2022/04/21 04:34:11;;;;;;;6.07;2.40;;;;;;;21.02;37.17;103002.00;4181556;28;20067;-64
2022/04/21 04:36:16;;;;;;;8.18;2.80;;;;;;;21.54;37.45;103077.69;4173258;28;20047;-67
2022/04/21 04:38:20;;;;;;;26.77;3.55;;;;;;;21.54;37.37;103072.13;4170088;28;20049;-64
2022/04/21 04:40:21;;;;;;;13.77;2.85;;;;;;;21.58;37.12;103078.91;4165304;28;20038;-66
2022/04/21 04:42:23;;;;;;;5.13;2.15;;;;;;;21.57;37.45;103078.03;4165496;28;20041;-65
2022/04/21 04:44:27;;;;;;;6.93;2.25;;;;;;;21.57;37.16;103077.19;4163472;28;20561;-65
2022/04/21 04:46:37;;;;;;;7.40;2.40;;;;;;;21.56;37.04;103081.06;4165258;28;20535;-64
2022/04/21 04:48:39;;;;;;;3.47;2.00;;;;;;;21.57;37.19;103088.34;4165211;28;20037;-65
2022/04/21 04:50:40;;;;;;;6.95;2.35;;;;;;;21.56;37.03;103081.91;4165447;28;20079;-65
2022/04/21 04:52:42;;;;;;;5.57;1.90;;;;;;;21.54;37.03;103083.25;4166357;28;20183;-65
2022/04/21 04:54:43;;;;;;;4.50;1.77;;;;;;;21.56;37.11;103081.06;4170240;28;20041;-64
2022/04/21 04:56:46;;;;;;;3.83;1.95;;;;;;;21.56;37.31;103081.06;4195315;28;20077;-65
2022/04/21 04:58:48;;;;;;;6.55;1.80;;;;;;;21.55;37.16;103080.22;4198489;28;20045;-65
2022/04/21 05:00:49;;;;;;;6.32;2.28;;;;;;;21.56;37.06;103087.50;4180791;28;20079;-65
2022/04/21 05:02:51;;;;;;;3.92;2.08;;;;;;;21.56;37.22;103086.66;4181334;28;20044;-65
2022/04/21 05:04:52;;;;;;;5.88;1.83;;;;;;;21.48;37.14;103075.81;4180566;28;20037;-65
2022/04/21 05:06:55;;;;;;;6.13;1.70;;;;;;;21.55;37.12;103084.94;4173655;28;20037;-65
2022/04/21 05:08:57;;;;;;;5.20;2.10;;;;;;;21.55;37.46;103084.94;4174327;28;20941;-65
2022/04/21 05:10:58;;;;;;;5.10;2.00;;;;;;;21.55;37.44;103088.59;4181620;28;20093;-66
2022/04/21 05:12:59;;;;;;;5.50;1.73;;;;;;;21.56;37.32;103075.50;4167523;28;20075;-66
2022/04/21 05:15:01;;;;;;;4.35;1.83;;;;;;;21.54;37.53;103072.13;4165387;28;20037;-65
2022/04/21 05:17:03;;;;;;;4.38;1.92;;;;;;;21.55;37.16;103090.53;4168178;28;20041;-64
2022/04/21 05:19:05;;;;;;;5.20;2.10;;;;;;;21.38;37.34;103067.16;4168805;28;20037;-64
2022/04/21 05:21:09;;;;;;;4.22;2.20;;;;;;;21.52;37.49;103090.97;4185506;28;20045;-65
2022/04/21 05:23:16;;;;;;;5.43;2.88;;;;;;;21.54;37.10;103097.19;4185278;28;20037;-64
2022/04/21 05:25:21;;;;;;;5.18;2.55;;;;;;;21.55;37.31;103088.59;4182586;28;20085;-64
2022/04/21 05:27:22;;;;;;;4.95;2.83;;;;;;;21.54;37.22;103094.41;4185455;28;20033;-64
2022/04/21 05:31:44;;;;;;;5.60;2.70;;;;;;;21.51;37.25;103081.78;4167795;28;20096;-65
2022/04/21 05:33:47;;;;;;;4.43;2.90;;;;;;;21.55;37.22;103090.53;4173701;28;20102;-65
2022/04/21 05:35:48;;;;;;;4.88;2.88;;;;;;;21.53;37.14;103084.31;4180415;28;20515;-65
2022/04/21 05:37:52;;;;;;;6.43;3.50;;;;;;;21.53;37.29;103081.53;4180144;28;20534;-65
2022/04/21 05:39:54;;;;;;;6.77;3.73;;;;;;;21.53;37.41;103089.88;4173893;28;20103;-65
2022/04/21 05:42:00;;;;;;;8.23;3.75;;;;;;;21.53;37.03;103084.31;4179136;28;20087;-64
2022/04/21 05:44:03;;;;;;;5.95;3.55;;;;;;;21.52;37.31;103075.13;4176921;28;20059;-65
2022/04/21 05:46:04;;;;;;;6.22;3.90;;;;;;;21.53;37.21;103081.53;4174694;28;20049;-64
2022/04/21 05:48:09;;;;;;;8.45;3.65;;;;;;;21.52;37.23;103077.91;4165140;28;20095;-64
2022/04/21 05:50:11;;;;;;;6.60;3.92;;;;;;;21.52;37.29;103079.84;4171609;28;20045;-65
2022/04/21 05:52:13;;;;;;;8.15;4.13;;;;;;;21.51;37.23;103078.13;4165199;28;20091;-65
2022/04/21 05:54:15;;;;;;;6.20;3.55;;;;;;;21.50;36.86;103068.09;4164829;28;20041;-65
2022/04/21 05:56:17;;;;;;;6.85;3.95;;;;;;;21.52;36.94;103066.75;4164715;28;20099;-64
2022/04/21 05:58:19;;;;;;;7.40;3.90;;;;;;;21.52;37.02;103074.25;4164474;28;20099;-64
2022/04/21 06:00:25;;;;;;;6.28;4.00;;;;;;;21.52;37.24;103079.84;4165160;28;20042;-66
2022/04/21 06:02:27;;;;;;;8.10;3.70;;;;;;;21.52;36.86;103079.84;4168315;28;20037;-65
2022/04/21 06:04:28;;;;;;;6.65;4.15;;;;;;;21.45;36.85;103063.22;4181552;28;20037;-65
2022/04/21 06:06:30;;;;;;;6.45;4.07;;;;;;;21.51;37.14;103069.78;4180827;28;20036;-65
2022/04/21 06:08:31;;;;;;;6.78;4.25;;;;;;;21.51;37.01;103072.56;4181270;28;20055;-65
2022/04/21 06:10:34;;;;;;;6.80;3.95;;;;;;;21.44;37.22;103066.22;4181384;28;20103;-66
2022/04/21 06:12:36;;;;;;;9.05;4.47;;;;;;;21.50;36.90;103071.72;4181063;28;20098;-66
2022/04/21 06:14:38;;;;;;;7.82;4.85;;;;;;;21.50;37.26;103065.31;4181101;28;20044;-64
2022/04/21 06:16:40;;;;;;;5.68;3.65;;;;;;;21.50;37.19;103063.38;4180538;28;20037;-64
2022/04/21 06:18:41;;;;;;;7.47;4.05;;;;;;;21.46;36.92;103064.06;4181048;28;20029;-64
2022/04/21 06:20:51;;;;;;;6.22;3.65;;;;;;;21.49;36.87;103060.81;4183177;28;20098;-64
2022/04/21 06:22:57;;;;;;;5.15;3.60;;;;;;;21.48;37.18;103067.44;4183951;28;20155;-64
2022/04/21 06:24:59;;;;;;;6.65;4.50;;;;;;;21.49;36.90;103063.63;4183617;28;20037;-64
2022/04/21 06:27:00;;;;;;;6.35;3.72;;;;;;;21.49;37.19;103063.63;4184282;28;20082;-65
2022/04/21 06:29:02;;;;;;;6.95;4.40;;;;;;;21.48;36.98;103059.09;4184230;28;20053;-65
2022/04/21 06:31:03;;;;;;;7.78;4.20;;;;;;;21.48;36.75;103067.44;4184334;28;20044;-65
2022/04/21 06:33:05;;;;;;;6.30;4.07;;;;;;;21.45;37.05;103070.72;4183632;28;20075;-64
2022/04/21 06:35:07;;;;;;;7.88;4.97;;;;;;;21.48;37.08;103073.03;4183473;28;20041;-65
2022/04/21 06:37:11;;;;;;;6.43;3.83;;;;;;;21.48;36.87;103078.59;4183784;28;20045;-65
2022/04/21 06:39:15;;;;;;;6.10;3.97;;;;;;;21.47;37.17;103079.69;4183742;28;20041;-65
2022/04/21 06:41:16;;;;;;;6.50;4.45;;;;;;;21.48;37.21;103073.03;4183740;28;20055;-65
2022/04/21 06:48:03;;;;;;;8.60;4.90;;;;;;;21.41;37.02;103063.91;4185250;28;20086;-65
2022/04/21 06:50:05;;;;;;;7.47;5.13;;;;;;;21.46;37.07;103072.44;4183447;28;20428;-65
2022/04/21 06:52:06;;;;;;;5.75;4.10;;;;;;;21.47;36.96;103072.19;4183836;28;20098;-65
2022/04/21 06:54:09;;;;;;;5.97;4.20;;;;;;;21.46;37.21;103075.22;4183770;28;20045;-65
2022/04/21 06:56:11;;;;;;;5.90;4.20;;;;;;;21.42;37.06;103065.63;4183616;28;20049;-65
2022/04/21 06:58:12;;;;;;;4.78;3.60;;;;;;;21.43;37.24;103075.66;4183588;28;20041;-65
2022/04/21 07:00:14;;;;;;;8.15;4.35;;;;;;;21.46;37.14;103072.44;4183765;28;20106;-65
2022/04/21 07:02:16;;;;;;;5.88;4.20;;;;;;;21.45;36.82;103073.50;4183588;28;20083;-65
2022/04/21 07:04:17;;;;;;;6.60;4.35;;;;;;;21.40;37.10;103076.16;4183739;28;20041;-65
2022/04/21 07:06:19;;;;;;;7.03;4.38;;;;;;;21.45;36.72;103068.78;4183065;28;20071;-64
2022/04/21 07:08:21;;;;;;;8.40;4.65;;;;;;;21.44;36.73;103069.00;4182992;28;20041;-65
2022/04/21 07:10:23;;;;;;;8.23;4.03;;;;;;;21.45;37.08;103076.31;4183199;28;20078;-65
2022/04/21 07:12:31;;;;;;;9.73;4.32;;;;;;;21.45;36.84;103073.50;4183103;28;20094;-65
2022/04/21 07:14:32;;;;;;;7.80;4.70;;;;;;;21.37;36.99;103060.75;4183091;28;20489;-64
2022/04/21 07:16:33;;;;;;;6.57;4.18;;;;;;;21.42;36.78;103060.03;4182780;28;20091;-64
2022/04/21 07:18:35;;;;;;;5.82;3.85;;;;;;;21.46;36.82;103064.91;4183218;28;20088;-65
2022/04/21 07:20:36;;;;;;;5.95;4.38;;;;;;;21.46;36.74;103072.44;4183065;28;20090;-65
2022/04/21 07:22:38;;;;;;;7.43;4.65;;;;;;;21.45;36.76;103067.94;4183080;28;20098;-65
2022/04/21 07:24:40;;;;;;;7.05;4.60;;;;;;;21.45;36.96;103070.72;4182573;28;20040;-64
2022/04/21 07:26:44;;;;;;;6.80;4.28;;;;;;;21.47;36.88;103074.13;4182866;28;20037;-64
2022/04/21 07:28:45;;;;;;;5.97;4.35;;;;;;;21.25;36.93;103041.13;4183142;28;20033;-64
2022/04/21 07:30:47;;;;;;;5.65;4.05;;;;;;;21.48;37.08;103078.59;4182936;28;20476;-65
2022/04/21 07:32:48;;;;;;;5.85;4.25;;;;;;;21.46;36.72;103064.06;4182474;28;20118;-65
2022/04/21 07:34:50;;;;;;;6.72;4.20;;;;;;;21.48;36.83;103073.88;4182491;28;20067;-65
2022/04/21 07:36:52;;;;;;;6.78;4.53;;;;;;;21.47;36.61;103066.59;4182499;28;20045;-66
2022/04/21 07:38:54;;;;;;;5.97;3.85;;;;;;;21.44;36.92;103061.53;4182440;28;20045;-65
2022/04/21 07:40:56;;;;;;;6.53;3.85;;;;;;;21.48;36.95;103073.03;4182969;28;20045;-65
2022/04/21 07:42:58;;;;;;;4.57;3.50;;;;;;;21.47;36.57;103072.19;4182563;28;20094;-65
2022/04/21 07:45:01;;;;;;;5.70;4.22;;;;;;;21.48;36.54;103078.59;4182420;28;20025;-65
2022/04/21 07:47:04;;;;;;;4.28;3.42;;;;;;;21.49;36.56;103074.75;4182689;28;20041;-65
2022/04/21 07:51:25;;;;;;;5.18;3.85;;;;;;;21.46;36.72;103069.63;4182931;28;20082;-65
2022/04/21 07:53:27;;;;;;;5.22;3.63;;;;;;;21.47;36.72;103093.63;4182431;28;20420;-65
2022/04/21 07:55:30;;;;;;;5.65;3.80;;;;;;;21.47;36.68;103085.25;4182000;28;20092;-65
2022/04/21 07:57:33;;;;;;;5.28;3.78;;;;;;;21.46;36.88;103089.13;4182714;28;20045;-65
2022/04/21 07:59:37;;;;;;;5.07;3.83;;;;;;;21.47;36.72;103093.63;4182405;28;20036;-65
2022/04/21 08:01:38;;;;;;;5.35;3.70;;;;;;;21.49;36.66;103108.19;4181964;28;20106;-65
2022/04/21 08:03:43;;;;;;;6.63;4.20;;;;;;;21.48;36.88;103101.72;4181807;28;20049;-66
2022/04/21 08:05:45;;;;;;;6.30;3.45;;;;;;;21.49;36.70;103106.25;4182075;28;20045;-65
2022/04/21 08:07:48;;;;;;;5.03;3.55;;;;;;;21.48;36.64;103103.66;4181816;28;20091;-66
2022/04/21 08:09:51;;;;;;;4.35;3.28;;;;;;;21.44;36.62;103099.63;4181985;28;20049;-65
2022/04/21 08:11:56;;;;;;;5.88;3.85;;;;;;;21.41;36.53;103094.56;4182032;28;20067;-65
2022/04/21 08:13:57;;;;;;;4.70;3.63;;;;;;;21.46;36.66;103117.84;4181272;28;20106;-66
2022/04/21 08:15:59;;;;;;;6.15;3.58;;;;;;;21.46;36.80;103108.63;4179211;28;20045;-66
2022/04/21 08:18:03;;;;;;;4.93;3.40;;;;;;;21.46;36.80;103114.22;4182074;28;20094;-65
2022/04/21 08:20:12;;;;;;;4.63;3.33;;;;;;;21.44;36.95;103121.94;4182319;28;20106;-65
2022/04/21 08:22:16;;;;;;;4.13;3.10;;;;;;;21.47;36.59;103127.03;4180660;28;20542;-65
2022/04/21 08:33:51;;;;;;;4.68;3.30;;;;;;;21.47;36.71;103127.03;4183527;28;20091;-66
2022/04/21 08:36:00;;;;;;;4.53;3.00;;;;;;;21.46;36.68;103119.78;4181422;28;20045;-66
2022/04/21 08:38:02;;;;;;;4.15;2.90;;;;;;;21.48;36.54;103120.38;4181636;28;20037;-65
2022/04/21 08:40:04;;;;;;;4.53;3.15;;;;;;;21.46;36.76;103120.63;4181780;28;20362;-65
2022/04/21 08:42:16;;;;;;;5.07;3.28;;;;;;;21.42;36.63;103112.97;4181596;28;20041;-65
2022/04/21 08:44:27;;;;;;;5.55;3.13;;;;;;;21.39;37.04;103102.28;4181506;28;20102;-65
2022/04/21 08:46:32;;;;;;;4.68;3.22;;;;;;;21.44;36.66;103110.78;4181482;28;20103;-65
2022/04/21 08:48:39;;;;;;;3.65;3.03;;;;;;;21.35;36.88;103103.81;4181923;28;20079;-64
2022/04/21 08:50:41;;;;;;;4.28;2.97;;;;;;;21.43;36.53;103115.50;4181240;28;20045;-65
2022/04/21 08:52:43;;;;;;;3.45;2.75;;;;;;;21.34;36.70;103093.78;4181676;28;20114;-64
2022/04/21 08:54:46;;;;;;;4.88;3.17;;;;;;;21.42;37.10;103107.41;4181083;28;20098;-64
2022/04/21 08:56:49;;;;;;;4.03;3.00;;;;;;;21.41;36.82;103105.69;4181875;28;20102;-64
2022/04/21 08:58:50;;;;;;;3.72;2.67;;;;;;;21.36;37.04;103086.06;4181871;28;20063;-64
2022/04/21 09:00:54;;;;;;;4.15;3.03;;;;;;;21.40;36.96;103098.44;4181507;28;20476;-65
2022/04/21 09:02:55;;;;;;;4.70;2.88;;;;;;;21.42;36.61;103101.81;4181466;28;20041;-64
2022/04/21 09:04:57;;;;;;;3.70;2.40;;;;;;;21.39;36.91;103100.34;4180934;28;20365;-64
2022/04/21 09:07:19;;;;;;;3.63;2.83;;;;;;;21.34;36.89;103099.34;4180712;28;20037;-64
2022/04/21 09:09:23;;;;;;;5.10;2.90;;;;;;;21.41;36.58;103105.69;4171760;28;20106;-64
2022/04/21 09:11:24;;;;;;;3.28;2.63;;;;;;;21.39;36.71;103110.63;4180006;28;20037;-64
2022/04/21 09:13:40;;;;;;;5.47;2.85;;;;;;;21.38;36.95;103100.59;4181185;28;20114;-65
2022/04/21 09:15:43;;;;;;;3.65;2.90;;;;;;;21.38;36.84;103087.50;4180829;28;20037;-65
2022/04/21 09:17:47;;;;;;;3.55;2.92;;;;;;;21.40;36.83;103087.28;4181618;28;20170;-64
2022/04/21 09:19:56;;;;;;;3.53;2.58;;;;;;;21.37;36.66;103094.16;4181484;28;20044;-65
2022/04/21 09:22:01;;;;;;;4.15;2.42;;;;;;;21.39;36.80;103096.72;4181503;28;20049;-65
2022/04/21 09:24:18;;;;;;;3.07;2.43;;;;;;;21.33;37.14;103080.94;4181514;28;20094;-64
2022/04/21 09:26:21;;;;;;;3.17;2.22;;;;;;;21.32;36.90;103088.44;4180269;28;20448;-65
2022/04/21 09:28:23;;;;;;;5.07;2.65;;;;;;;21.38;36.71;103092.22;4181255;28;20095;-65
2022/04/21 09:30:25;;;;;;;3.97;2.50;;;;;;;21.37;36.97;103085.81;4181376;28;20477;-65
2022/04/21 09:32:26;;;;;;;4.75;2.67;;;;;;;21.36;36.61;103092.47;4180476;28;20037;-65
2022/04/21 09:34:31;;;;;;;3.42;2.40;;;;;;;21.18;36.86;103071.00;4181455;28;20484;-65
2022/04/21 09:36:36;;;;;;;2.65;2.20;;;;;;;21.35;36.68;103112.19;4181056;28;20037;-65
2022/04/21 09:38:40;;;;;;;3.47;2.60;;;;;;;21.28;37.04;103103.88;4181563;28;20098;-65
2022/04/21 09:40:45;;;;;;;3.42;2.45;;;;;;;21.36;36.64;103120.31;4180737;28;20067;-65
2022/04/21 09:43:03;;;;;;;2.70;1.98;;;;;;;21.28;36.93;103124.22;4180808;28;20045;-65
2022/04/21 09:47:30;;;;;;;2.78;2.40;;;;;;;21.31;36.93;103134.94;4181638;28;20439;-65
2022/04/21 09:49:41;;;;;;;3.30;2.40;;;;;;;21.34;36.72;103127.19;4164069;28;20073;-66
2022/04/21 09:51:45;;;;;;;3.03;2.10;;;;;;;21.34;37.03;103132.75;4164562;28;20041;-65
2022/04/21 09:54:03;;;;;;;3.65;2.35;;;;;;;21.30;36.76;103141.56;4165876;28;20091;-64
2022/04/21 09:56:08;;;;;;;3.00;2.33;;;;;;;21.16;36.70;103120.47;4168382;28;20547;-64
2022/04/21 09:58:10;;;;;;;3.30;2.10;;;;;;;21.25;36.91;103137.75;4167727;28;20100;-64
2022/04/21 10:00:13;;;;;;;2.80;2.10;;;;;;;21.32;36.82;103146.94;4168070;28;20099;-64
2022/04/21 10:02:18;;;;;;;3.78;2.15;;;;;;;21.31;36.90;103151.66;4176415;28;20434;-64
2022/04/21 10:04:20;;;;;;;3.92;2.42;;;;;;;21.25;36.73;103140.53;4184728;28;20537;-64
2022/04/21 10:06:22;;;;;;;2.40;1.83;;;;;;;21.20;36.75;103144.00;4184216;28;20037;-65
2022/04/21 10:08:23;;;;;;;3.53;2.25;;;;;;;21.30;36.99;103155.50;4185192;28;20045;-64